createdAt,value
2022-10-07T00:01:12.428Z,12.23
2022-10-07T00:03:41.214Z,11.07
2022-10-07T00:06:13.181Z,13.07
2022-10-07T00:08:43.235Z,16.00
2022-10-07T00:11:13.062Z,12.43
2022-10-07T00:13:42.685Z,16.67
2022-10-07T00:16:14.761Z,12.85
2022-10-07T00:18:43.391Z,10.18
2022-10-07T00:21:14.192Z,12.70
2022-10-07T00:23:43.511Z,11.38
2022-10-07T00:26:13.992Z,10.23
2022-10-07T00:28:42.394Z,8.20
2022-10-07T00:31:19.127Z,15.23
2022-10-07T00:33:48.187Z,12.73
2022-10-07T00:36:18.898Z,10.45
2022-10-07T00:38:50.706Z,8.70
2022-10-07T00:41:20.564Z,14.70
2022-10-07T00:43:49.044Z,10.68
2022-10-07T00:46:29.362Z,15.27
2022-10-07T00:48:59.005Z,12.48
2022-10-07T00:51:27.997Z,15.32
2022-10-07T00:53:57.122Z,6.93
2022-10-07T00:56:26.592Z,14.00
2022-10-07T00:58:54.685Z,9.32
2022-10-07T01:01:24.148Z,14.45
2022-10-07T01:03:52.176Z,7.72
2022-10-07T01:06:20.234Z,9.85
2022-10-07T01:08:49.804Z,9.05
2022-10-07T01:11:29.873Z,7.03
2022-10-07T01:14:07.846Z,13.48
2022-10-07T01:16:47.230Z,9.32
2022-10-07T01:19:32.547Z,13.60
2022-10-07T01:22:12.496Z,8.73
2022-10-07T01:24:43.884Z,8.25
2022-10-07T01:27:15.036Z,11.73
2022-10-07T01:29:47.418Z,6.88
2022-10-07T01:32:20.123Z,11.27
2022-10-07T01:34:51.359Z,10.05
2022-10-07T01:37:22.063Z,10.93
2022-10-07T01:39:54.431Z,8.40
2022-10-07T01:42:26.138Z,16.00
2022-10-07T01:44:57.674Z,7.00
2022-10-07T01:47:26.834Z,7.10
2022-10-07T01:49:54.868Z,14.70
2022-10-07T01:52:52.341Z,11.45
2022-10-07T01:55:35.129Z,8.57
2022-10-07T01:58:14.095Z,7.10
2022-10-07T02:00:46.967Z,12.88
2022-10-07T02:03:27.224Z,9.45
2022-10-07T02:06:01.983Z,8.52
2022-10-07T02:08:35.600Z,12.20
2022-10-07T02:11:13.629Z,12.77
2022-10-07T02:13:57.853Z,6.97
2022-10-07T02:16:33.350Z,12.18
2022-10-07T02:19:04.323Z,12.00
2022-10-07T02:21:36.305Z,13.10
2022-10-07T02:24:06.423Z,12.18
2022-10-07T02:26:35.799Z,13.80
2022-10-07T02:29:07.816Z,7.35
2022-10-07T02:31:38.415Z,8.63
2022-10-07T02:34:10.129Z,9.00
2022-10-07T02:36:42.908Z,5.28
2022-10-07T02:39:11.422Z,7.03
2022-10-07T02:41:44.806Z,8.45
2022-10-07T02:44:25.878Z,7.43
2022-10-07T02:46:57.525Z,8.18
2022-10-07T02:49:27.618Z,12.52
2022-10-07T02:52:00.009Z,8.82
2022-10-07T02:54:33.258Z,11.30
2022-10-07T02:57:02.323Z,13.10
2022-10-07T02:59:34.486Z,12.70
2022-10-07T03:02:05.694Z,12.20
2022-10-07T03:04:33.854Z,8.10
2022-10-07T03:07:01.945Z,12.10
2022-10-07T03:09:30.526Z,14.68
2022-10-07T03:11:58.422Z,8.32
2022-10-07T03:14:26.418Z,15.38
2022-10-07T03:16:55.644Z,4.32
2022-10-07T03:19:23.861Z,7.07
2022-10-07T03:21:51.706Z,12.48
2022-10-07T03:24:19.577Z,9.55
2022-10-07T03:26:47.441Z,9.95
2022-10-07T03:29:15.945Z,9.15
2022-10-07T03:31:43.870Z,11.90
2022-10-07T03:34:13.413Z,10.13
2022-10-07T03:36:41.357Z,7.55
2022-10-07T03:39:09.298Z,9.13
2022-10-07T03:41:37.275Z,8.88
2022-10-07T03:44:05.522Z,7.90
2022-10-07T03:46:33.498Z,9.75
2022-10-07T03:49:01.864Z,8.10
2022-10-07T03:51:31.073Z,9.15
2022-10-07T03:53:59.105Z,12.93
2022-10-07T03:56:26.993Z,9.10
2022-10-07T03:58:55.478Z,11.70
2022-10-07T04:01:23.688Z,13.88
2022-10-07T04:03:51.705Z,7.95
2022-10-07T04:06:19.819Z,8.07
2022-10-07T04:08:52.963Z,12.75
2022-10-07T04:11:20.841Z,13.27
2022-10-07T04:13:49.188Z,10.38
2022-10-07T04:16:17.142Z,9.20
2022-10-07T04:18:45.592Z,13.77
2022-10-07T04:21:13.522Z,9.73
2022-10-07T04:23:42.492Z,9.15
2022-10-07T04:26:13.639Z,12.60
2022-10-07T04:28:41.952Z,9.73
2022-10-07T04:31:11.657Z,10.45
2022-10-07T04:33:42.027Z,9.10
2022-10-07T04:36:12.058Z,6.72
2022-10-07T04:38:40.877Z,8.57
2022-10-07T04:41:09.175Z,10.02
2022-10-07T04:43:38.558Z,7.30
2022-10-07T04:46:08.627Z,9.00
2022-10-07T04:48:36.744Z,7.22
2022-10-07T04:51:06.678Z,7.80
2022-10-07T04:53:35.274Z,13.00
2022-10-07T04:56:03.726Z,9.48
2022-10-07T04:58:32.722Z,12.93
2022-10-07T05:01:02.758Z,7.90
2022-10-07T05:03:31.092Z,6.70
2022-10-07T05:06:05.840Z,9.18
2022-10-07T05:08:34.469Z,13.88
2022-10-07T05:11:03.555Z,9.57
2022-10-07T05:13:31.885Z,11.10
2022-10-07T05:16:02.405Z,10.80
2022-10-07T05:18:32.066Z,7.85
2022-10-07T05:21:00.009Z,11.63
2022-10-07T05:23:29.047Z,12.85
2022-10-07T05:26:01.378Z,10.68
2022-10-07T05:28:29.511Z,11.10
2022-10-07T05:31:07.173Z,10.25
2022-10-07T05:33:35.594Z,8.10
2022-10-07T05:36:03.766Z,13.52
2022-10-07T05:38:31.728Z,9.77
2022-10-07T05:41:00.827Z,8.55
2022-10-07T05:43:29.320Z,15.43
2022-10-07T05:46:02.077Z,10.88
2022-10-07T05:48:38.084Z,11.90
2022-10-07T05:51:07.979Z,9.07
2022-10-07T05:53:35.931Z,10.50
2022-10-07T05:56:06.579Z,7.20
2022-10-07T05:58:36.183Z,10.23
2022-10-07T06:01:11.465Z,8.75
2022-10-07T06:03:43.503Z,9.40
2022-10-07T06:06:11.469Z,13.70
2022-10-07T06:08:39.379Z,11.90
2022-10-07T06:11:25.699Z,13.25
2022-10-07T06:13:55.119Z,10.13
2022-10-07T06:16:24.033Z,10.27
2022-10-07T06:18:54.444Z,9.18
2022-10-07T06:21:26.501Z,9.45
2022-10-07T06:23:55.277Z,10.52
2022-10-07T06:26:24.184Z,11.05
2022-10-07T06:28:52.263Z,10.23
2022-10-07T06:31:22.493Z,8.60
2022-10-07T06:33:50.582Z,9.18
2022-10-07T06:36:20.053Z,12.38
2022-10-07T06:38:49.075Z,9.90
2022-10-07T06:41:17.655Z,6.18
2022-10-07T06:43:46.039Z,12.77
2022-10-07T06:46:15.698Z,10.88
2022-10-07T06:48:44.554Z,8.38
2022-10-07T06:51:15.261Z,16.25
2022-10-07T06:53:45.325Z,8.38
2022-10-07T06:56:14.995Z,16.08
2022-10-07T06:58:43.570Z,14.77
2022-10-07T07:01:11.823Z,12.98
2022-10-07T07:03:40.005Z,11.30
2022-10-07T07:06:08.905Z,12.57
2022-10-07T07:08:38.694Z,17.40
2022-10-07T07:11:30.936Z,8.85
2022-10-07T07:13:59.542Z,8.68
2022-10-07T07:16:27.744Z,11.38
2022-10-07T07:18:56.985Z,14.13
2022-10-07T07:21:25.857Z,13.38
2022-10-07T07:23:53.789Z,12.38
2022-10-07T07:26:23.356Z,9.90
2022-10-07T07:28:54.954Z,10.80
2022-10-07T07:31:23.045Z,9.65
2022-10-07T07:33:52.611Z,11.93
2022-10-07T07:36:24.038Z,12.02
2022-10-07T07:38:53.641Z,14.23
2022-10-07T07:41:25.647Z,15.07
2022-10-07T07:43:55.400Z,11.45
2022-10-07T07:46:26.105Z,10.25
2022-10-07T07:48:54.941Z,10.07
2022-10-07T07:51:24.140Z,12.52
2022-10-07T07:53:52.279Z,20.15
2022-10-07T07:56:22.337Z,13.60
2022-10-07T07:58:50.225Z,13.98
2022-10-07T08:01:19.756Z,10.35
2022-10-07T08:03:48.916Z,12.13
2022-10-07T08:06:19.443Z,12.85
2022-10-07T08:08:47.724Z,14.30
2022-10-07T08:11:17.749Z,17.08
2022-10-07T08:13:48.518Z,15.98
2022-10-07T08:16:18.873Z,13.63
2022-10-07T08:18:48.095Z,14.85
2022-10-07T08:21:18.548Z,15.30
2022-10-07T08:23:47.592Z,19.17
2022-10-07T08:26:16.078Z,14.63
2022-10-07T08:28:44.023Z,11.55
2022-10-07T08:31:14.521Z,14.20
2022-10-07T08:33:45.412Z,14.50
2022-10-07T08:36:15.735Z,16.63
2022-10-07T08:38:51.210Z,17.50
2022-10-07T08:41:39.803Z,13.93
2022-10-07T08:44:27.331Z,13.35
2022-10-07T08:47:02.623Z,19.42
2022-10-07T08:49:40.302Z,15.63
2022-10-07T08:52:29.944Z,19.58
2022-10-07T08:54:59.251Z,16.23
2022-10-07T08:57:39.359Z,18.70
2022-10-07T09:00:09.132Z,20.33
2022-10-07T09:02:45.898Z,18.27
2022-10-07T09:05:21.874Z,14.98
2022-10-07T09:07:54.016Z,9.90
2022-10-07T09:10:32.095Z,20.48
2022-10-07T09:15:39.019Z,20.40
2022-10-07T09:18:16.982Z,16.05
2022-10-07T09:20:48.198Z,16.77
2022-10-07T09:23:16.603Z,14.70
2022-10-07T09:25:45.092Z,15.13
2022-10-07T09:28:15.555Z,13.70
2022-10-07T09:30:44.109Z,16.70
2022-10-07T09:33:18.095Z,17.98
2022-10-07T09:35:57.405Z,12.38
2022-10-07T09:38:33.968Z,12.48
2022-10-07T09:41:19.636Z,10.88
2022-10-07T09:44:00.164Z,14.88
2022-10-07T09:46:46.749Z,12.10
2022-10-07T09:49:41.044Z,13.98
2022-10-07T09:52:17.448Z,10.93
2022-10-07T09:54:47.459Z,16.45
2022-10-07T09:57:28.084Z,12.15
2022-10-07T10:00:19.197Z,12.48
2022-10-07T10:02:49.474Z,10.45
2022-10-07T10:05:26.102Z,12.30
2022-10-07T10:07:56.870Z,13.15
2022-10-07T10:10:28.015Z,10.35
2022-10-07T10:12:58.383Z,11.85
2022-10-07T10:15:30.500Z,14.73
2022-10-07T10:17:58.705Z,13.93
2022-10-07T10:20:31.409Z,17.52
2022-10-07T10:23:01.065Z,19.05
2022-10-07T10:25:56.403Z,11.88
2022-10-07T10:28:39.473Z,11.52
2022-10-07T10:31:17.925Z,13.02
2022-10-07T10:33:52.778Z,14.80
2022-10-07T10:36:25.026Z,17.20
2022-10-07T10:39:01.509Z,12.23
2022-10-07T10:41:35.603Z,15.10
2022-10-07T10:44:22.426Z,15.43
2022-10-07T10:46:56.494Z,15.13
2022-10-07T10:49:30.570Z,13.30
2022-10-07T10:52:21.067Z,16.05
2022-10-07T10:55:02.051Z,13.85
2022-10-07T10:57:42.471Z,12.85
2022-10-07T11:00:13.721Z,13.60
2022-10-07T11:03:23.588Z,15.38
2022-10-07T11:05:52.208Z,18.80
2022-10-07T11:08:27.541Z,12.30
2022-10-07T11:10:58.934Z,12.77
2022-10-07T11:13:35.522Z,9.98
2022-10-07T11:16:09.231Z,10.55
2022-10-07T11:18:45.495Z,10.40
2022-10-07T11:21:18.207Z,12.48
2022-10-07T11:23:55.462Z,9.32
2022-10-07T11:26:32.444Z,10.17
2022-10-07T11:29:11.333Z,10.15
2022-10-07T11:31:42.650Z,11.60
2022-10-07T11:34:18.381Z,10.07
2022-10-07T11:36:53.772Z,10.32
2022-10-07T11:39:24.057Z,9.05
2022-10-07T11:41:58.404Z,13.43
2022-10-07T11:44:30.616Z,13.27
2022-10-07T11:47:02.910Z,11.07
2022-10-07T11:49:35.931Z,11.98
2022-10-07T11:52:06.730Z,11.10
2022-10-07T11:54:42.882Z,8.95
2022-10-07T11:57:21.807Z,23.38
2022-10-07T11:59:51.920Z,16.75
2022-10-07T12:02:41.275Z,13.82
2022-10-07T12:06:02.447Z,12.90
2022-10-07T12:08:35.539Z,11.45
2022-10-07T12:11:43.396Z,8.77
2022-10-07T12:14:44.633Z,9.60
2022-10-07T12:17:25.200Z,15.57
2022-10-07T12:20:37.679Z,13.80
2022-10-07T12:23:36.710Z,11.57
2022-10-07T12:26:06.778Z,16.95
2022-10-07T12:28:46.019Z,7.68
2022-10-07T12:31:47.691Z,6.55
2022-10-07T12:34:27.906Z,8.27
2022-10-07T12:37:31.155Z,8.90
2022-10-07T12:39:59.959Z,8.55
2022-10-07T12:42:29.685Z,9.35
2022-10-07T12:45:00.014Z,6.40
2022-10-07T12:47:30.617Z,7.13
2022-10-07T12:50:02.311Z,7.82
2022-10-07T12:52:40.836Z,10.80
2022-10-07T12:55:11.434Z,10.38
2022-10-07T12:57:43.736Z,7.03
2022-10-07T13:00:15.433Z,8.70
2022-10-07T13:03:27.025Z,9.73
2022-10-07T13:06:45.772Z,8.65
2022-10-07T13:09:54.466Z,9.48
2022-10-07T13:12:30.674Z,7.28
2022-10-07T13:15:11.839Z,10.48
2022-10-07T13:17:47.315Z,8.10
2022-10-07T13:20:29.049Z,7.63
2022-10-07T13:22:57.514Z,5.25
2022-10-07T13:25:25.403Z,10.95
2022-10-07T13:27:56.784Z,10.23
2022-10-07T13:30:37.155Z,7.65
2022-10-07T13:33:28.917Z,6.93
2022-10-07T13:36:16.859Z,7.18
2022-10-07T13:38:46.251Z,8.43
2022-10-07T13:41:25.333Z,14.00
2022-10-07T13:43:56.682Z,6.47
2022-10-07T13:46:27.514Z,11.57
2022-10-07T13:48:56.953Z,8.10
2022-10-07T13:51:37.412Z,13.57
2022-10-07T13:54:08.741Z,11.70
2022-10-07T13:56:41.151Z,9.40
2022-10-07T13:59:15.943Z,10.15
2022-10-07T14:01:44.185Z,9.60
2022-10-07T14:04:20.207Z,7.30
2022-10-07T14:06:54.309Z,9.18
2022-10-07T14:09:26.364Z,14.60
2022-10-07T14:11:57.538Z,10.45
2022-10-07T14:14:28.393Z,7.03
2022-10-07T14:17:00.118Z,7.85
2022-10-07T14:19:33.418Z,9.35
2022-10-07T14:22:05.852Z,7.05
2022-10-07T14:24:33.883Z,9.48
2022-10-07T14:27:02.045Z,6.97
2022-10-07T14:29:37.644Z,6.95
2022-10-07T14:32:29.256Z,10.30
2022-10-07T14:35:14.892Z,8.93
2022-10-07T14:37:44.337Z,7.70
2022-10-07T14:40:20.547Z,13.40
2022-10-07T14:42:49.973Z,8.88
2022-10-07T14:45:18.742Z,6.88
2022-10-07T14:47:46.873Z,7.70
2022-10-07T14:50:16.288Z,13.00
2022-10-07T14:52:47.874Z,8.65
2022-10-07T14:55:19.693Z,10.13
2022-10-07T14:57:48.091Z,11.18
2022-10-07T15:00:20.131Z,9.48
2022-10-07T15:02:50.122Z,11.00
2022-10-07T15:05:18.772Z,11.00
2022-10-07T15:07:49.820Z,7.30
2022-10-07T15:10:19.609Z,7.15
2022-10-07T15:12:48.765Z,12.02
2022-10-07T15:15:17.710Z,7.05
2022-10-07T15:17:45.951Z,8.85
2022-10-07T15:20:16.055Z,10.32
2022-10-07T15:22:45.211Z,11.85
2022-10-07T15:25:15.767Z,14.68
2022-10-07T15:27:43.755Z,12.75
2022-10-07T15:30:13.224Z,10.13
2022-10-07T15:32:41.155Z,15.23
2022-10-07T15:35:09.706Z,13.65
2022-10-07T15:37:37.602Z,10.90
2022-10-07T15:40:07.445Z,10.15
2022-10-07T15:42:36.995Z,13.05
2022-10-07T15:45:05.278Z,15.18
2022-10-07T15:47:34.290Z,7.88
2022-10-07T15:50:02.249Z,8.77
2022-10-07T15:52:30.132Z,8.82
2022-10-07T15:54:58.009Z,7.88
2022-10-07T15:57:26.990Z,11.82
2022-10-07T15:59:56.246Z,11.27
2022-10-07T16:02:24.868Z,14.80
2022-10-07T16:04:52.867Z,8.40
2022-10-07T16:07:20.726Z,10.57
2022-10-07T16:09:48.619Z,8.98
2022-10-07T16:12:16.476Z,13.35
2022-10-07T16:14:44.331Z,12.02
2022-10-07T16:17:14.286Z,13.48
2022-10-07T16:19:42.180Z,10.93
2022-10-07T16:22:10.037Z,10.30
2022-10-07T16:24:39.627Z,10.13
2022-10-07T16:27:07.647Z,9.85
2022-10-07T16:29:53.259Z,10.50
2022-10-07T16:32:22.423Z,12.05
2022-10-07T16:34:50.302Z,9.15
2022-10-07T16:37:18.154Z,13.55
2022-10-07T16:39:46.018Z,10.52
2022-10-07T16:42:14.475Z,27.85
2022-10-07T16:44:43.273Z,10.05
2022-10-07T16:47:13.533Z,9.50
2022-10-07T16:49:43.088Z,10.32
2022-10-07T16:52:11.894Z,13.75
2022-10-07T16:54:40.612Z,8.48
2022-10-07T16:57:08.471Z,13.50
2022-10-07T16:59:36.338Z,10.77
2022-10-07T17:02:06.254Z,9.18
2022-10-07T17:04:34.157Z,12.02
2022-10-07T17:07:05.717Z,12.75
2022-10-07T17:09:33.643Z,14.73
2022-10-07T17:12:01.603Z,14.10
2022-10-07T17:14:31.612Z,12.05
2022-10-07T17:17:00.347Z,11.85
2022-10-07T17:19:29.830Z,13.00
2022-10-07T17:21:59.675Z,17.58
2022-10-07T17:24:29.915Z,13.20
2022-10-07T17:26:57.750Z,15.05
2022-10-07T17:29:26.307Z,11.05
2022-10-07T17:31:55.137Z,11.15
2022-10-07T17:34:23.656Z,10.23
2022-10-07T17:36:52.121Z,16.50
2022-10-07T17:39:20.453Z,13.90
2022-10-07T17:41:49.902Z,10.80
2022-10-07T17:44:18.524Z,13.02
2022-10-07T17:46:48.815Z,10.93
2022-10-07T17:49:16.908Z,12.75
2022-10-07T17:51:44.781Z,14.45
2022-10-07T17:54:14.215Z,13.93
2022-10-07T17:56:47.496Z,10.23
2022-10-07T17:59:17.254Z,9.98
2022-10-07T18:01:45.470Z,12.20
2022-10-07T18:04:17.944Z,13.95
2022-10-07T18:06:49.049Z,15.23
2022-10-07T18:09:19.323Z,13.80
2022-10-07T18:12:05.195Z,13.95
2022-10-07T18:14:54.176Z,14.68
2022-10-07T18:17:22.349Z,14.85
2022-10-07T18:19:50.255Z,12.85
2022-10-07T18:22:18.137Z,14.40
2022-10-07T18:24:46.034Z,12.93
2022-10-07T18:27:14.311Z,15.07
2022-10-07T18:29:43.495Z,14.13
2022-10-07T18:32:11.391Z,15.07
2022-10-07T18:34:39.325Z,11.50
2022-10-07T18:37:07.199Z,15.35
2022-10-07T18:39:35.101Z,16.30
2022-10-07T18:42:04.388Z,21.42
2022-10-07T18:44:32.358Z,14.85
2022-10-07T18:47:01.535Z,12.27
2022-10-07T18:49:29.423Z,13.18
2022-10-07T18:51:57.282Z,14.80
2022-10-07T18:54:25.275Z,19.40
2022-10-07T18:56:53.312Z,14.50
2022-10-07T18:59:21.959Z,15.77
2022-10-07T19:01:51.058Z,14.48
2022-10-07T19:04:20.862Z,13.68
2022-10-07T19:06:49.442Z,16.13
2022-10-07T19:09:19.775Z,14.65
2022-10-07T19:11:48.237Z,17.55
2022-10-07T19:14:16.055Z,13.63
2022-10-07T19:16:45.989Z,14.40
2022-10-07T19:19:17.082Z,12.18
2022-10-07T19:21:48.578Z,17.75
2022-10-07T19:24:17.449Z,19.33
2022-10-07T19:26:47.010Z,15.60
2022-10-07T19:29:16.688Z,15.93
2022-10-07T19:31:46.310Z,13.32
2022-10-07T19:34:16.019Z,10.50
2022-10-07T19:36:47.281Z,12.60
2022-10-07T19:39:17.211Z,12.70
2022-10-07T19:41:45.928Z,20.42
2022-10-07T19:44:15.144Z,17.63
2022-10-07T19:46:43.038Z,14.57
2022-10-07T19:49:11.206Z,11.63
2022-10-07T19:51:41.823Z,17.65
2022-10-07T19:54:13.025Z,24.08
2022-10-07T19:56:41.613Z,13.55
2022-10-07T19:59:11.543Z,20.50
2022-10-07T20:01:42.362Z,21.88
2022-10-07T20:04:13.343Z,14.00
2022-10-07T20:06:42.126Z,14.32
2022-10-07T20:09:13.857Z,20.00
2022-10-07T20:11:42.391Z,18.33
2022-10-07T20:14:10.518Z,16.48
2022-10-07T20:16:39.484Z,18.70
2022-10-07T20:19:09.380Z,17.42
2022-10-07T20:21:39.285Z,16.90
2022-10-07T20:24:08.501Z,14.27
2022-10-07T20:26:39.487Z,17.73
2022-10-07T20:29:10.272Z,18.52
2022-10-07T20:31:40.695Z,19.35
2022-10-07T20:34:11.143Z,13.35
2022-10-07T20:36:41.231Z,15.00
2022-10-07T20:39:31.632Z,13.60
2022-10-07T20:42:18.994Z,14.25
2022-10-07T20:44:48.135Z,19.38
2022-10-07T20:47:16.183Z,21.40
2022-10-07T20:49:44.063Z,16.20
2022-10-07T20:52:14.094Z,15.52
2022-10-07T20:54:41.972Z,13.18
2022-10-07T20:57:12.887Z,15.88
2022-10-07T20:59:40.836Z,15.52
2022-10-07T21:02:09.787Z,17.95
2022-10-07T21:04:37.805Z,16.88
2022-10-07T21:07:05.859Z,16.92
2022-10-07T21:09:36.496Z,17.30
2022-10-07T21:12:07.214Z,16.83
2022-10-07T21:14:36.892Z,14.50
2022-10-07T21:17:05.811Z,20.65
2022-10-07T21:19:35.588Z,18.15
2022-10-07T21:22:03.895Z,22.42
2022-10-07T21:24:34.154Z,14.02
2022-10-07T21:27:02.843Z,22.70
2022-10-07T21:29:32.070Z,16.90
2022-10-07T21:32:01.963Z,14.38
2022-10-07T21:34:30.630Z,17.33
2022-10-07T21:36:59.067Z,20.92
2022-10-07T21:39:27.003Z,20.08
2022-10-07T21:41:55.224Z,17.00
2022-10-07T21:44:23.063Z,30.35
2022-10-07T21:46:50.999Z,18.75
2022-10-07T21:49:20.328Z,25.83
2022-10-07T21:51:48.173Z,17.50
2022-10-07T21:54:16.159Z,22.70
2022-10-07T21:56:46.077Z,23.23
2022-10-07T21:59:14.437Z,28.33
2022-10-07T22:01:43.146Z,21.17
2022-10-07T22:04:17.477Z,18.42
2022-10-07T22:07:04.258Z,18.90
2022-10-07T22:09:32.250Z,16.45
2022-10-07T22:12:00.168Z,21.85
2022-10-07T22:14:28.591Z,24.38
2022-10-07T22:16:56.774Z,19.65
2022-10-07T22:19:25.207Z,23.02
2022-10-07T22:21:54.471Z,22.83
2022-10-07T22:24:23.901Z,23.13
2022-10-07T22:26:52.095Z,24.10
2022-10-07T22:29:21.565Z,21.08
2022-10-07T22:31:49.508Z,27.02
2022-10-07T22:34:35.679Z,37.53
2022-10-07T22:37:05.983Z,24.00
2022-10-07T22:39:33.822Z,24.30
2022-10-07T22:42:02.300Z,25.73
2022-10-07T22:44:31.768Z,30.52
2022-10-07T22:47:00.239Z,24.58
2022-10-07T22:49:30.263Z,23.75
2022-10-07T22:51:59.661Z,22.20
2022-10-07T22:54:30.081Z,20.65
2022-10-07T22:56:57.928Z,26.45
2022-10-07T22:59:25.881Z,26.55
2022-10-07T23:01:54.027Z,29.77
2022-10-07T23:04:21.883Z,22.17
2022-10-07T23:06:49.812Z,23.88
2022-10-07T23:09:17.669Z,22.52
2022-10-07T23:11:46.932Z,27.77
2022-10-07T23:14:14.870Z,30.55
2022-10-07T23:16:44.161Z,21.25
2022-10-07T23:19:12.102Z,26.17
2022-10-07T23:21:39.989Z,20.77
2022-10-07T23:24:10.058Z,29.35
2022-10-07T23:26:38.343Z,25.52
2022-10-07T23:29:08.528Z,23.55
2022-10-07T23:31:36.474Z,25.55
2022-10-07T23:34:04.832Z,23.83
2022-10-07T23:36:34.742Z,25.08
2022-10-07T23:39:02.933Z,29.70
2022-10-07T23:41:31.975Z,22.13
2022-10-07T23:44:01.959Z,24.33
2022-10-07T23:46:34.988Z,28.60
2022-10-07T23:49:03.644Z,23.15
2022-10-07T23:51:32.153Z,25.35
2022-10-07T23:54:02.129Z,18.35
2022-10-07T23:56:30.973Z,26.10
2022-10-07T23:58:59.167Z,30.38
